Harrison, Nebraska
Current Conditions -  °F | °C
As of 4:06 AM on Wednesday 26 Nov 2014 (Local Time) from KCDR Reporting Station
Overcast Overcast  
Wind Chill: 24°   Ceiling: 1300
Heat Index: 32°   Visibility: 10mi
Dew Point: 21°   Wind: 10mph
Humidity: 64%   Direction: 40°NE
Pressure: 30.18"   Gusts: NA
Location:  42.69°N, 103.88°W
Report Text: KCDR 261106Z AUTO 04009KT 10SM BKN013 OVC120 00/M06 A3018 RMK AO2 T00001061
Loading
Personal Weather Stations






























Interactive Weather Map New forecast layout! Learn more

10-Day Weather Forecast

Advertisements
Track Severe Weather on mobile